sensor_id;sensor_type;location;lat;lon;timestamp;temperature;humidity
7378;DHT22;3730;50.856;12.776;2023-09-19T04:37:26;16.20;99.90
7378;DHT22;3730;50.856;12.776;2023-09-19T04:42:17;16.30;99.90
7378;DHT22;3730;50.856;12.776;2023-09-19T04:44:44;16.10;99.90
7378;DHT22;3730;50.856;12.776;2023-09-19T04:52:05;16.30;99.90
7378;DHT22;3730;50.856;12.776;2023-09-19T04:54:31;16.30;99.90
7378;DHT22;3730;50.856;12.776;2023-09-19T04:56:56;16.60;99.90
7378;DHT22;3730;50.856;12.776;2023-09-19T04:59:22;16.20;99.90
7378;DHT22;3730;50.856;12.776;2023-09-19T05:01:48;16.50;99.90
7378;DHT22;3730;50.856;12.776;2023-09-19T05:04:14;16.50;93.80
7378;DHT22;3730;50.856;12.776;2023-09-19T05:11:32;16.50;40.70
7378;DHT22;3730;50.856;12.776;2023-09-19T05:13:58;16.40;48.00
7378;DHT22;3730;50.856;12.776;2023-09-19T05:16:29;16.40;45.20
7378;DHT22;3730;50.856;12.776;2023-09-19T05:21:23;16.20;37.50
7378;DHT22;3730;50.856;12.776;2023-09-19T05:23:51;16.30;67.00
7378;DHT22;3730;50.856;12.776;2023-09-19T05:26:17;16.20;61.30
7378;DHT22;3730;50.856;12.776;2023-09-19T05:28:43;16.30;95.40
7378;DHT22;3730;50.856;12.776;2023-09-19T05:33:35;16.30;95.40
7378;DHT22;3730;50.856;12.776;2023-09-19T05:36:00;16.40;99.90
7378;DHT22;3730;50.856;12.776;2023-09-19T05:38:26;16.20;94.20
7378;DHT22;3730;50.856;12.776;2023-09-19T05:43:18;16.10;84.10
7378;DHT22;3730;50.856;12.776;2023-09-19T05:48:15;16.30;47.40
7378;DHT22;3730;50.856;12.776;2023-09-19T05:50:41;16.40;30.50
7378;DHT22;3730;50.856;12.776;2023-09-19T05:53:07;16.40;16.70
7378;DHT22;3730;50.856;12.776;2023-09-19T05:57:59;16.40;1.00
7378;DHT22;3730;50.856;12.776;2023-09-19T06:00:26;16.40;1.00
7378;DHT22;3730;50.856;12.776;2023-09-19T06:02:56;16.50;3.80
7378;DHT22;3730;50.856;12.776;2023-09-19T06:05:24;16.50;1.00
7378;DHT22;3730;50.856;12.776;2023-09-19T06:07:50;16.20;1.00
7378;DHT22;3730;50.856;12.776;2023-09-19T06:12:43;16.60;1.00
7378;DHT22;3730;50.856;12.776;2023-09-19T06:15:12;16.60;1.00
7378;DHT22;3730;50.856;12.776;2023-09-19T06:17:53;16.70;1.00
7378;DHT22;3730;50.856;12.776;2023-09-19T06:20:23;16.60;1.00
7378;DHT22;3730;50.856;12.776;2023-09-19T06:22:49;16.60;1.00
7378;DHT22;3730;50.856;12.776;2023-09-19T06:25:16;16.80;1.00
7378;DHT22;3730;50.856;12.776;2023-09-19T06:27:54;16.90;1.00
7378;DHT22;3730;50.856;12.776;2023-09-19T06:30:22;16.80;1.00
7378;DHT22;3730;50.856;12.776;2023-09-19T06:32:49;16.80;1.00
7378;DHT22;3730;50.856;12.776;2023-09-19T06:35:16;16.80;1.00
7378;DHT22;3730;50.856;12.776;2023-09-19T06:37:42;16.80;1.00
7378;DHT22;3730;50.856;12.776;2023-09-19T06:42:43;16.90;1.00
7378;DHT22;3730;50.856;12.776;2023-09-19T06:47:44;17.00;1.00
7378;DHT22;3730;50.856;12.776;2023-09-19T06:50:11;16.90;1.00
7378;DHT22;3730;50.856;12.776;2023-09-19T06:52:43;16.90;1.00
7378;DHT22;3730;50.856;12.776;2023-09-19T06:55:08;16.60;1.00
7378;DHT22;3730;50.856;12.776;2023-09-19T06:57:39;16.80;1.00
7378;DHT22;3730;50.856;12.776;2023-09-19T07:00:06;17.00;1.00
7378;DHT22;3730;50.856;12.776;2023-09-19T07:03:01;17.00;1.00
7378;DHT22;3730;50.856;12.776;2023-09-19T07:05:30;17.20;1.00
7378;DHT22;3730;50.856;12.776;2023-09-19T07:07:59;17.10;99.90
7378;DHT22;3730;50.856;12.776;2023-09-19T07:13:03;17.00;99.90
7378;DHT22;3730;50.856;12.776;2023-09-19T07:15:30;17.10;99.90
7378;DHT22;3730;50.856;12.776;2023-09-19T07:17:59;17.20;99.90
7378;DHT22;3730;50.856;12.776;2023-09-19T07:20:26;17.10;99.90
7378;DHT22;3730;50.856;12.776;2023-09-19T07:22:53;17.30;99.90
7378;DHT22;3730;50.856;12.776;2023-09-19T16:06:20;21.00;1.00
7378;DHT22;3730;50.856;12.776;2023-09-19T16:08:51;20.70;1.00
7378;DHT22;3730;50.856;12.776;2023-09-19T16:11:19;20.60;1.00
7378;DHT22;3730;50.856;12.776;2023-09-19T16:13:48;20.40;1.00
7378;DHT22;3730;50.856;12.776;2023-09-19T16:43:32;21.20;1.00
7378;DHT22;3730;50.856;12.776;2023-09-19T16:46:02;21.30;1.00
7378;DHT22;3730;50.856;12.776;2023-09-19T16:48:29;21.10;1.00
7378;DHT22;3730;50.856;12.776;2023-09-19T16:50:59;20.70;1.00
7378;DHT22;3730;50.856;12.776;2023-09-19T16:53:39;20.30;1.00
